createdAt,value
2019-01-23T00:01:21.628Z,30.27
2019-01-23T00:03:50.644Z,29.02
2019-01-23T00:06:19.664Z,31.10
2019-01-23T00:08:48.745Z,31.17
2019-01-23T00:11:17.786Z,32.15
2019-01-23T00:13:46.838Z,29.30
2019-01-23T00:16:15.848Z,34.55
2019-01-23T00:18:44.894Z,34.08
2019-01-23T00:21:14.048Z,31.17
2019-01-23T00:23:43.152Z,31.57
2019-01-23T00:26:12.183Z,31.33
2019-01-23T00:28:42.472Z,30.82
2019-01-23T00:31:11.732Z,30.65
2019-01-23T00:33:40.820Z,26.60
2019-01-23T00:36:09.898Z,28.80
2019-01-23T00:38:38.897Z,30.65
2019-01-23T00:41:07.935Z,28.35
2019-01-23T00:43:37.145Z,28.73
2019-01-23T00:46:06.187Z,28.70
2019-01-23T00:48:35.318Z,27.98
2019-01-23T00:51:04.443Z,27.45
2019-01-23T00:53:33.605Z,29.35
2019-01-23T00:56:03.682Z,28.40
2019-01-23T00:58:32.850Z,29.75
2019-01-23T01:01:02.004Z,27.07
2019-01-23T01:03:31.110Z,30.45
2019-01-23T01:06:00.103Z,29.87
2019-01-23T01:08:29.281Z,27.07
2019-01-23T01:10:58.351Z,28.92
2019-01-23T01:13:27.453Z,29.35
2019-01-23T01:15:56.513Z,30.57
2019-01-23T01:18:25.489Z,33.88
2019-01-23T01:20:54.606Z,32.63
2019-01-23T01:23:23.609Z,31.23
2019-01-23T01:25:52.636Z,28.42
2019-01-23T01:28:21.726Z,30.02
2019-01-23T01:30:50.813Z,27.73
2019-01-23T01:33:19.904Z,30.27
2019-01-23T01:35:48.938Z,27.70
2019-01-23T01:38:18.159Z,27.40
2019-01-23T01:40:47.203Z,27.35
2019-01-23T01:43:16.219Z,29.05
2019-01-23T01:45:45.319Z,29.25
2019-01-23T01:48:14.333Z,31.27
2019-01-23T01:50:43.413Z,28.07
2019-01-23T01:53:13.576Z,29.15
2019-01-23T01:55:42.623Z,27.62
2019-01-23T01:58:11.784Z,25.97
2019-01-23T02:00:40.892Z,29.87
2019-01-23T02:03:09.982Z,30.85
2019-01-23T02:05:39.074Z,28.45
2019-01-23T02:08:08.091Z,29.72
2019-01-23T02:10:37.258Z,29.20
2019-01-23T02:13:06.326Z,31.55
2019-01-23T02:15:35.578Z,31.62
2019-01-23T02:18:04.654Z,27.37
2019-01-23T02:20:33.686Z,29.77
2019-01-23T02:23:02.698Z,26.02
2019-01-23T02:25:31.794Z,25.88
2019-01-23T02:28:00.971Z,27.40
2019-01-23T02:30:29.985Z,28.77
2019-01-23T02:32:59.140Z,24.47
2019-01-23T02:35:28.235Z,29.32
2019-01-23T02:37:57.247Z,27.32
2019-01-23T02:40:26.343Z,27.42
2019-01-23T02:42:55.384Z,27.98
2019-01-23T02:45:24.380Z,27.80
2019-01-23T02:47:53.415Z,26.05
2019-01-23T02:50:23.515Z,28.45
2019-01-23T02:52:52.611Z,28.55
2019-01-23T02:55:21.646Z,25.62
2019-01-23T02:58:16.170Z,23.73
2019-01-23T03:00:45.179Z,25.20
2019-01-23T03:03:14.195Z,25.95
2019-01-23T03:05:43.179Z,24.63
2019-01-23T03:08:12.206Z,29.90
2019-01-23T03:10:41.226Z,27.70
2019-01-23T03:13:10.230Z,26.17
2019-01-23T03:15:39.266Z,27.40
2019-01-23T03:18:08.243Z,26.55
2019-01-23T03:20:37.287Z,26.07
2019-01-23T03:23:06.262Z,26.68
2019-01-23T03:25:35.275Z,25.62
2019-01-23T03:28:04.307Z,26.65
2019-01-23T03:30:33.317Z,23.27
2019-01-23T03:33:02.321Z,25.50
2019-01-23T03:35:31.337Z,25.88
2019-01-23T03:38:00.318Z,24.55
2019-01-23T03:40:29.358Z,24.23
2019-01-23T03:42:58.336Z,26.57
2019-01-23T03:45:27.350Z,26.77
2019-01-23T03:47:56.435Z,25.92
2019-01-23T03:50:25.382Z,25.57
2019-01-23T03:52:54.414Z,25.75
2019-01-23T03:55:23.430Z,25.80
2019-01-23T03:57:52.434Z,27.42
2019-01-23T04:00:21.641Z,26.35
2019-01-23T04:02:50.920Z,23.80
2019-01-23T04:05:19.934Z,25.65
2019-01-23T04:07:48.961Z,24.65
2019-01-23T04:10:17.963Z,23.70
2019-01-23T04:12:46.977Z,24.85
2019-01-23T04:15:16.535Z,26.30
2019-01-23T04:17:45.489Z,26.27
2019-01-23T04:20:15.464Z,22.82
2019-01-23T04:22:44.443Z,20.25
2019-01-23T04:25:13.482Z,24.50
2019-01-23T04:27:42.475Z,25.20
2019-01-23T04:30:12.735Z,22.10
2019-01-23T04:32:41.721Z,24.45
2019-01-23T04:35:10.810Z,23.38
2019-01-23T04:37:39.911Z,24.32
2019-01-23T04:40:09.961Z,22.55
2019-01-23T04:42:38.966Z,22.60
2019-01-23T04:45:09.554Z,22.52
2019-01-23T04:47:38.568Z,24.23
2019-01-23T04:50:08.935Z,24.10
2019-01-23T04:52:45.350Z,24.45
2019-01-23T04:55:14.322Z,22.37
2019-01-23T04:57:43.299Z,22.70
2019-01-23T05:00:14.323Z,25.32
2019-01-23T05:02:43.294Z,24.05
2019-01-23T05:05:12.658Z,25.80
2019-01-23T05:07:41.668Z,26.30
2019-01-23T05:10:10.657Z,22.48
2019-01-23T05:12:39.660Z,25.57
2019-01-23T05:15:09.241Z,24.67
2019-01-23T05:17:38.291Z,22.73
2019-01-23T05:20:09.169Z,23.35
2019-01-23T05:22:38.147Z,25.05
2019-01-23T05:25:07.203Z,24.35
2019-01-23T05:27:36.569Z,27.37
2019-01-23T05:30:19.200Z,27.40
2019-01-23T05:32:48.175Z,24.72
2019-01-23T05:35:17.240Z,24.15
2019-01-23T05:37:46.213Z,24.65
2019-01-23T05:40:15.225Z,24.92
2019-01-23T05:42:44.195Z,28.23
2019-01-23T05:45:14.500Z,25.32
2019-01-23T05:47:43.502Z,24.07
2019-01-23T05:50:14.015Z,25.55
2019-01-23T05:52:43.324Z,24.07
2019-01-23T05:55:12.969Z,22.40
2019-01-23T05:57:41.954Z,26.42
2019-01-23T06:00:12.508Z,25.10
2019-01-23T06:02:41.532Z,26.15
2019-01-23T06:05:11.589Z,24.70
2019-01-23T06:07:40.585Z,23.95
2019-01-23T06:10:10.516Z,24.20
2019-01-23T06:12:39.524Z,24.10
2019-01-23T06:15:11.986Z,23.57
2019-01-23T06:17:40.978Z,27.80
2019-01-23T06:20:11.231Z,24.02
2019-01-23T06:22:40.217Z,25.05
2019-01-23T06:25:09.183Z,25.52
2019-01-23T06:27:38.188Z,31.05
2019-01-23T06:30:11.754Z,28.00
2019-01-23T06:32:40.775Z,28.30
2019-01-23T06:35:09.741Z,26.55
2019-01-23T06:37:38.726Z,29.02
2019-01-23T06:40:09.201Z,27.85
2019-01-23T06:42:38.161Z,26.02
2019-01-23T06:45:08.922Z,25.05
2019-01-23T06:47:38.977Z,26.48
2019-01-23T06:50:09.594Z,28.73
2019-01-23T06:52:38.713Z,29.60
2019-01-23T06:55:08.378Z,30.60
2019-01-23T06:57:37.538Z,25.72
2019-01-23T07:00:08.173Z,26.05
2019-01-23T07:02:37.125Z,32.95
2019-01-23T07:05:06.995Z,38.95
2019-01-23T07:07:35.981Z,33.25
2019-01-23T07:10:06.663Z,46.77
2019-01-23T07:12:35.667Z,38.25
2019-01-23T07:15:06.530Z,33.35
2019-01-23T07:17:35.513Z,31.82
2019-01-23T07:20:06.125Z,32.75
2019-01-23T07:22:35.117Z,45.78
2019-01-23T07:25:05.247Z,27.77
2019-01-23T07:27:34.256Z,29.23
2019-01-23T07:30:05.525Z,29.72
2019-01-23T07:32:34.587Z,31.95
2019-01-23T07:35:04.257Z,42.13
2019-01-23T07:37:33.234Z,40.17
2019-01-23T07:40:02.315Z,39.83
2019-01-23T07:42:31.303Z,30.27
2019-01-23T07:45:00.276Z,34.08
2019-01-23T07:47:29.264Z,29.00
2019-01-23T07:49:58.214Z,36.03
2019-01-23T07:52:27.237Z,33.55
2019-01-23T07:54:56.214Z,33.67
2019-01-23T07:57:25.198Z,31.35
2019-01-23T07:59:54.212Z,32.25
2019-01-23T08:02:23.198Z,30.27
2019-01-23T08:04:52.181Z,32.63
2019-01-23T08:07:21.159Z,31.35
2019-01-23T08:09:50.219Z,31.07
2019-01-23T08:12:19.200Z,31.45
2019-01-23T08:14:48.203Z,29.63
2019-01-23T08:17:17.227Z,30.08
2019-01-23T08:19:46.228Z,31.60
2019-01-23T08:22:15.175Z,32.03
2019-01-23T08:24:44.180Z,34.43
2019-01-23T08:27:13.149Z,34.25
2019-01-23T08:29:42.135Z,33.38
2019-01-23T08:32:12.217Z,46.75
2019-01-23T08:34:41.212Z,36.35
2019-01-23T08:37:10.171Z,30.43
2019-01-23T08:39:39.172Z,32.00
2019-01-23T08:42:08.127Z,30.12
2019-01-23T08:44:37.133Z,28.27
2019-01-23T08:47:06.122Z,32.80
2019-01-23T08:49:35.080Z,51.53
2019-01-23T08:52:04.088Z,51.05
2019-01-23T08:54:33.096Z,30.40
2019-01-23T08:57:02.050Z,26.05
2019-01-23T08:59:31.066Z,63.63
2019-01-23T09:02:00.042Z,33.42
2019-01-23T09:04:29.040Z,37.78
2019-01-23T09:06:58.031Z,29.67
2019-01-23T09:09:27.008Z,22.98
2019-01-23T09:11:56.012Z,24.45
2019-01-23T09:14:25.019Z,25.02
2019-01-23T09:16:54.005Z,95.10
2019-01-23T09:19:22.991Z,54.30
2019-01-23T09:21:51.966Z,31.80
2019-01-23T09:24:20.939Z,26.80
2019-01-23T09:26:49.941Z,45.28
2019-01-23T09:29:18.897Z,28.85
2019-01-23T09:31:58.486Z,30.35
2019-01-23T09:34:29.102Z,28.90
2019-01-23T09:37:08.963Z,29.15
2019-01-23T09:39:42.480Z,28.07
2019-01-23T09:42:15.820Z,30.55
2019-01-23T09:45:01.591Z,30.10
2019-01-23T09:47:41.380Z,26.62
2019-01-23T09:50:28.526Z,26.30
2019-01-23T09:53:05.182Z,29.63
2019-01-23T09:55:34.150Z,27.50
2019-01-23T09:58:03.134Z,27.45
2019-01-23T10:00:32.129Z,28.87
2019-01-23T10:03:01.121Z,24.72
2019-01-23T10:05:30.096Z,29.75
2019-01-23T10:07:59.105Z,30.40
2019-01-23T10:10:28.089Z,28.77
2019-01-23T10:12:57.101Z,28.67
2019-01-23T10:15:30.729Z,31.23
2019-01-23T10:17:59.709Z,32.60
2019-01-23T10:20:28.724Z,31.42
2019-01-23T10:22:57.708Z,31.75
2019-01-23T10:25:26.694Z,30.65
2019-01-23T10:27:55.704Z,30.12
2019-01-23T10:30:24.686Z,33.00
2019-01-23T10:32:53.705Z,32.35
2019-01-23T10:35:22.708Z,34.13
2019-01-23T10:37:51.684Z,35.03
2019-01-23T10:40:20.687Z,33.92
2019-01-23T10:42:49.662Z,33.65
2019-01-23T10:45:18.631Z,35.52
2019-01-23T10:47:47.648Z,34.10
2019-01-23T10:50:16.870Z,35.03
2019-01-23T10:52:45.880Z,34.30
2019-01-23T10:55:14.856Z,34.08
2019-01-23T10:57:43.848Z,34.63
2019-01-23T11:00:19.908Z,32.42
2019-01-23T11:02:48.881Z,33.08
2019-01-23T11:05:19.242Z,37.13
2019-01-23T11:07:48.265Z,33.65
2019-01-23T11:10:18.604Z,31.10
2019-01-23T11:12:47.592Z,32.55
2019-01-23T11:15:16.593Z,34.15
2019-01-23T11:17:45.598Z,33.85
2019-01-23T11:20:15.941Z,32.60
2019-01-23T11:22:44.941Z,32.48
2019-01-23T11:25:14.702Z,36.73
2019-01-23T11:27:44.168Z,33.28
2019-01-23T11:30:17.503Z,31.85
2019-01-23T11:32:46.495Z,34.08
2019-01-23T11:35:15.478Z,33.90
2019-01-23T11:37:44.484Z,32.67
2019-01-23T11:40:29.858Z,34.33
2019-01-23T11:42:58.841Z,36.05
2019-01-23T11:45:27.919Z,34.13
2019-01-23T11:47:56.882Z,35.05
2019-01-23T11:50:25.893Z,33.48
2019-01-23T11:52:54.874Z,34.88
2019-01-23T11:55:23.928Z,33.65
2019-01-23T11:57:52.940Z,33.08
2019-01-23T12:00:23.538Z,33.78
2019-01-23T12:02:52.545Z,34.67
2019-01-23T12:05:22.124Z,35.33
2019-01-23T12:08:03.289Z,34.92
2019-01-23T12:10:32.348Z,34.90
2019-01-23T12:13:04.572Z,30.95
2019-01-23T12:15:33.624Z,32.98
2019-01-23T12:18:02.583Z,33.42
2019-01-23T12:20:31.594Z,31.75
2019-01-23T12:23:00.544Z,31.23
2019-01-23T12:25:29.529Z,32.15
2019-01-23T12:27:58.504Z,32.70
2019-01-23T12:30:28.967Z,32.00
2019-01-23T12:32:57.948Z,31.95
2019-01-23T12:35:26.951Z,32.70
2019-01-23T12:37:55.909Z,32.60
2019-01-23T12:40:24.922Z,33.13
2019-01-23T12:42:54.323Z,32.78
2019-01-23T12:45:28.499Z,32.30
2019-01-23T12:47:58.652Z,36.75
2019-01-23T12:50:31.157Z,34.90
2019-01-23T12:53:00.313Z,34.30
2019-01-23T12:55:29.247Z,33.15
2019-01-23T12:57:58.216Z,33.67
2019-01-23T13:00:28.264Z,34.18
2019-01-23T13:02:57.418Z,37.83
2019-01-23T13:05:26.610Z,35.83
2019-01-23T13:07:55.618Z,35.40
2019-01-23T13:10:24.978Z,34.60
2019-01-23T13:12:54.368Z,33.38
2019-01-23T13:15:24.141Z,37.35
2019-01-23T13:17:53.169Z,33.28
2019-01-23T13:20:24.685Z,34.27
2019-01-23T13:22:53.843Z,30.68
2019-01-23T13:25:23.677Z,31.30
2019-01-23T13:27:52.761Z,29.40
2019-01-23T13:30:23.969Z,30.17
2019-01-23T13:32:53.069Z,31.23
2019-01-23T13:35:23.657Z,32.17
2019-01-23T13:37:54.341Z,30.90
2019-01-23T13:40:27.883Z,35.35
2019-01-23T13:42:56.870Z,32.80
2019-01-23T13:45:27.016Z,33.63
2019-01-23T13:47:56.024Z,34.33
2019-01-23T13:50:26.074Z,31.05
2019-01-23T13:52:55.135Z,35.73
2019-01-23T13:55:24.208Z,35.58
2019-01-23T13:57:54.356Z,33.05
2019-01-23T14:00:40.210Z,32.00
2019-01-23T14:03:09.379Z,35.25
2019-01-23T14:05:39.710Z,32.98
2019-01-23T14:08:08.822Z,33.70
2019-01-23T14:10:37.801Z,32.67
2019-01-23T14:13:06.827Z,33.28
2019-01-23T14:15:36.770Z,35.43
2019-01-23T14:18:06.117Z,33.08
2019-01-23T14:20:35.096Z,31.25
2019-01-23T14:23:04.147Z,32.70
2019-01-23T14:25:34.451Z,33.42
2019-01-23T14:28:03.801Z,35.58
2019-01-23T14:30:33.966Z,36.63
2019-01-23T14:33:04.986Z,36.17
2019-01-23T14:35:34.627Z,36.98
2019-01-23T14:38:03.671Z,36.50
2019-01-23T14:40:32.693Z,36.20
2019-01-23T14:43:01.702Z,35.38
2019-01-23T14:45:30.799Z,34.83
2019-01-23T14:47:59.854Z,35.65
2019-01-23T14:50:28.860Z,33.28
2019-01-23T14:52:57.846Z,35.65
2019-01-23T14:55:26.866Z,35.52
2019-01-23T14:57:55.946Z,35.25
2019-01-23T15:00:26.025Z,34.63
2019-01-23T15:02:55.129Z,35.68
2019-01-23T15:05:27.402Z,34.30
2019-01-23T15:07:56.358Z,33.10
2019-01-23T15:10:30.646Z,30.60
2019-01-23T15:12:59.649Z,29.57
2019-01-23T15:15:29.633Z,28.47
2019-01-23T15:17:59.715Z,28.25
2019-01-23T15:20:30.308Z,29.10
2019-01-23T15:22:59.264Z,30.65
2019-01-23T15:25:28.321Z,27.45
2019-01-23T15:27:57.371Z,28.10
2019-01-23T15:30:26.365Z,25.95
2019-01-23T15:32:55.350Z,27.50
2019-01-23T15:35:24.396Z,26.17
2019-01-23T15:37:53.782Z,26.35
2019-01-23T15:40:24.411Z,25.72
2019-01-23T15:42:54.137Z,25.05
2019-01-23T15:45:23.503Z,20.97
2019-01-23T15:47:55.581Z,19.40
2019-01-23T15:50:30.869Z,17.82
2019-01-23T15:53:03.940Z,17.95
2019-01-23T15:55:34.622Z,18.42
2019-01-23T15:58:03.705Z,16.52
2019-01-23T16:00:33.065Z,18.12
2019-01-23T16:03:03.911Z,19.55
2019-01-23T16:05:38.193Z,18.70
2019-01-23T16:08:10.515Z,18.62
2019-01-23T16:13:42.384Z,25.35
2019-01-23T16:19:09.315Z,26.10
2019-01-23T16:21:45.347Z,28.30
2019-01-23T16:24:08.985Z,28.10
2019-01-23T16:26:38.218Z,31.40
2019-01-23T16:29:13.778Z,29.32
2019-01-23T16:31:42.118Z,31.80
2019-01-23T16:34:11.328Z,34.18
2019-01-23T16:36:40.610Z,29.02
2019-01-23T16:39:09.941Z,28.87
2019-01-23T16:41:39.152Z,26.45
2019-01-23T16:44:08.193Z,24.63
2019-01-23T16:46:37.318Z,23.47
2019-01-23T16:49:06.571Z,22.45
2019-01-23T16:51:35.835Z,20.17
2019-01-23T16:54:20.330Z,19.90
2019-01-23T16:56:42.105Z,21.87
2019-01-23T16:59:14.546Z,19.35
2019-01-23T17:01:43.792Z,19.57
2019-01-23T17:04:12.810Z,18.15
2019-01-23T17:06:42.027Z,18.10
2019-01-23T17:09:14.306Z,17.85
2019-01-23T17:11:50.824Z,17.95
2019-01-23T17:14:23.713Z,18.37
2019-01-23T17:16:53.614Z,18.42
2019-01-23T17:19:27.749Z,24.18
2019-01-23T17:21:59.607Z,27.25
2019-01-23T17:24:30.451Z,30.95
2019-01-23T17:27:01.502Z,24.35
2019-01-23T17:29:36.527Z,21.62
2019-01-23T17:35:05.289Z,20.62
2019-01-23T17:37:42.097Z,20.48
2019-01-23T17:40:12.893Z,18.90
2019-01-23T17:42:41.998Z,18.37
2019-01-23T17:45:12.765Z,19.70
2019-01-23T17:47:43.003Z,22.17
2019-01-23T17:50:13.528Z,21.30
2019-01-23T17:52:42.666Z,20.57
2019-01-23T17:55:19.597Z,18.98
2019-01-23T17:57:48.807Z,17.87
2019-01-23T18:00:20.833Z,21.23
2019-01-23T18:02:52.833Z,19.95
2019-01-23T18:05:20.609Z,21.33
2019-01-23T18:07:49.698Z,20.23
2019-01-23T18:10:18.884Z,21.70
2019-01-23T18:12:48.059Z,20.32
2019-01-23T18:15:18.766Z,20.20
2019-01-23T18:17:47.899Z,20.97
2019-01-23T18:20:18.718Z,22.25
2019-01-23T18:22:47.809Z,20.92
2019-01-23T18:25:17.332Z,19.10
2019-01-23T18:27:46.485Z,19.02
2019-01-23T18:30:17.175Z,20.20
2019-01-23T18:32:46.509Z,20.55
2019-01-23T18:35:35.710Z,19.73
2019-01-23T18:38:06.333Z,21.52
2019-01-23T18:40:45.978Z,20.97
2019-01-23T18:43:16.629Z,24.25
2019-01-23T18:45:47.300Z,23.95
2019-01-23T18:48:36.467Z,22.93
2019-01-23T18:51:12.823Z,26.57
2019-01-23T18:53:41.977Z,29.12
2019-01-23T18:56:11.014Z,27.90
2019-01-23T18:58:40.258Z,30.32
2019-01-23T19:01:09.285Z,31.52
2019-01-23T19:03:39.353Z,35.25
2019-01-23T19:06:08.367Z,33.10
2019-01-23T19:08:37.516Z,32.73
2019-01-23T19:11:07.659Z,32.53
2019-01-23T19:13:36.917Z,32.53
2019-01-23T19:16:06.000Z,36.08
2019-01-23T19:18:34.934Z,32.00
2019-01-23T19:21:04.017Z,32.03
2019-01-23T19:23:32.991Z,32.25
2019-01-23T19:26:02.306Z,35.25
2019-01-23T19:28:31.537Z,32.73
2019-01-23T19:31:00.659Z,35.00
2019-01-23T19:33:29.818Z,37.05
2019-01-23T19:35:58.955Z,39.10
2019-01-23T19:38:28.196Z,39.60
2019-01-23T19:40:57.438Z,40.40
2019-01-23T19:43:26.492Z,43.42
2019-01-23T19:45:55.726Z,40.90
2019-01-23T19:48:24.954Z,47.60
2019-01-23T19:50:53.987Z,44.55
2019-01-23T19:53:23.226Z,56.77
2019-01-23T19:55:52.334Z,47.27
2019-01-23T19:58:21.581Z,48.63
2019-01-23T20:00:50.702Z,60.28
2019-01-23T20:03:20.650Z,66.77
2019-01-23T20:05:50.192Z,78.72
2019-01-23T20:08:19.290Z,71.33
2019-01-23T20:10:48.399Z,76.70
2019-01-23T20:13:17.605Z,86.60
2019-01-23T20:15:46.791Z,79.17
2019-01-23T20:18:16.018Z,91.80
2019-01-23T20:20:45.228Z,86.25
2019-01-23T20:23:14.408Z,84.72
2019-01-23T20:25:43.649Z,83.75
2019-01-23T20:28:12.853Z,68.50
2019-01-23T20:30:42.087Z,81.92
2019-01-23T20:33:11.298Z,80.55
2019-01-23T20:35:40.508Z,81.17
2019-01-23T20:38:09.620Z,79.27
2019-01-23T20:40:38.790Z,78.22
2019-01-23T20:43:07.923Z,78.52
2019-01-23T20:45:37.077Z,81.90
2019-01-23T20:48:06.422Z,85.03
2019-01-23T20:50:35.546Z,74.97
2019-01-23T20:53:04.780Z,77.17
2019-01-23T20:55:33.846Z,80.38
2019-01-23T20:58:02.938Z,80.15
2019-01-23T21:00:32.606Z,74.67
2019-01-23T21:03:01.708Z,77.30
2019-01-23T21:05:30.929Z,76.70
2019-01-23T21:08:01.095Z,72.62
2019-01-23T21:10:30.249Z,72.62
2019-01-23T21:12:59.318Z,81.17
2019-01-23T21:15:29.220Z,70.60
2019-01-23T21:17:58.435Z,75.00
2019-01-23T21:20:28.257Z,78.17
2019-01-23T21:22:57.401Z,77.35
2019-01-23T21:25:26.474Z,77.85
2019-01-23T21:27:55.656Z,76.40
2019-01-23T21:30:25.888Z,73.12
2019-01-23T21:32:55.030Z,77.92
2019-01-23T21:35:24.162Z,74.03
2019-01-23T21:37:54.293Z,70.20
2019-01-23T21:40:24.727Z,69.72
2019-01-23T21:42:53.788Z,70.12
2019-01-23T21:45:23.026Z,73.85
2019-01-23T21:47:52.171Z,72.58
2019-01-23T21:50:25.056Z,73.57
2019-01-23T21:52:54.243Z,73.57
2019-01-23T21:55:24.068Z,73.72
2019-01-23T21:57:53.285Z,69.20
2019-01-23T22:00:26.786Z,72.70
2019-01-23T22:02:56.636Z,68.40
2019-01-23T22:05:25.630Z,74.58
2019-01-23T22:07:54.635Z,71.75
2019-01-23T22:10:23.626Z,65.00
2019-01-23T22:12:52.614Z,64.62
2019-01-23T22:15:23.105Z,64.53
2019-01-23T22:17:52.104Z,65.05
2019-01-23T22:20:21.567Z,75.55
2019-01-23T22:22:50.548Z,70.78
2019-01-23T22:25:20.914Z,70.28
2019-01-23T22:27:49.877Z,67.82
2019-01-23T22:30:26.486Z,68.52
2019-01-23T22:32:55.447Z,64.80
2019-01-23T22:35:24.443Z,64.30
2019-01-23T22:37:53.421Z,64.15
2019-01-23T22:40:22.392Z,62.60
2019-01-23T22:42:51.400Z,64.82
2019-01-23T22:45:21.153Z,61.90
2019-01-23T22:47:50.106Z,68.57
2019-01-23T22:50:20.739Z,66.42
2019-01-23T22:52:49.778Z,62.93
2019-01-23T22:55:18.776Z,66.33
2019-01-23T22:57:47.771Z,71.90
2019-01-23T23:00:32.209Z,63.90
2019-01-23T23:03:03.109Z,66.70
2019-01-23T23:05:32.120Z,63.10
2019-01-23T23:08:01.103Z,62.75
2019-01-23T23:10:30.099Z,63.05
2019-01-23T23:12:59.077Z,59.80
2019-01-23T23:15:28.076Z,63.30
2019-01-23T23:17:57.083Z,62.65
2019-01-23T23:20:26.046Z,60.17
2019-01-23T23:22:55.048Z,69.03
2019-01-23T23:25:24.041Z,64.47
2019-01-23T23:27:53.113Z,62.43
2019-01-23T23:30:23.670Z,63.35
2019-01-23T23:32:52.650Z,64.10
2019-01-23T23:35:21.663Z,61.42
2019-01-23T23:37:51.545Z,62.13
2019-01-23T23:40:20.557Z,61.45
2019-01-23T23:42:49.546Z,63.87
2019-01-23T23:45:18.704Z,62.67
2019-01-23T23:47:47.707Z,61.60
2019-01-23T23:50:16.962Z,58.78
2019-01-23T23:52:45.950Z,61.83
2019-01-23T23:55:15.313Z,61.83
2019-01-23T23:57:44.282Z,64.50
